sensor_id;sensor_type;location;lat;lon;timestamp;P1;durP1;ratioP1;P2;durP2;ratioP2
10403;SDS011;5248;47.374;8.486;2022-07-29T00:00:49;2.92;;;2.72;;
10403;SDS011;5248;47.374;8.486;2022-07-29T00:03:16;2.88;;;2.78;;
10403;SDS011;5248;47.374;8.486;2022-07-29T00:05:43;2.78;;;2.58;;
10403;SDS011;5248;47.374;8.486;2022-07-29T00:08:09;3.10;;;2.90;;
10403;SDS011;5248;47.374;8.486;2022-07-29T00:10:36;4.63;;;2.70;;
10403;SDS011;5248;47.374;8.486;2022-07-29T00:13:02;2.72;;;2.58;;
10403;SDS011;5248;47.374;8.486;2022-07-29T00:15:29;2.80;;;2.70;;
10403;SDS011;5248;47.374;8.486;2022-07-29T00:17:57;2.92;;;2.72;;
10403;SDS011;5248;47.374;8.486;2022-07-29T00:20:24;2.92;;;2.63;;
10403;SDS011;5248;47.374;8.486;2022-07-29T00:22:50;2.58;;;2.47;;
10403;SDS011;5248;47.374;8.486;2022-07-29T00:25:18;2.75;;;2.60;;
10403;SDS011;5248;47.374;8.486;2022-07-29T00:27:44;2.72;;;2.53;;
10403;SDS011;5248;47.374;8.486;2022-07-29T00:30:12;2.83;;;2.67;;
10403;SDS011;5248;47.374;8.486;2022-07-29T00:32:38;3.20;;;2.60;;
10403;SDS011;5248;47.374;8.486;2022-07-29T00:35:07;2.90;;;2.70;;
10403;SDS011;5248;47.374;8.486;2022-07-29T00:37:52;3.00;;;2.80;;
10403;SDS011;5248;47.374;8.486;2022-07-29T00:40:18;2.90;;;2.70;;
10403;SDS011;5248;47.374;8.486;2022-07-29T00:42:45;2.78;;;2.63;;
10403;SDS011;5248;47.374;8.486;2022-07-29T00:45:13;3.40;;;3.10;;
10403;SDS011;5248;47.374;8.486;2022-07-29T00:47:40;2.95;;;2.75;;
10403;SDS011;5248;47.374;8.486;2022-07-29T00:50:09;2.80;;;2.60;;
10403;SDS011;5248;47.374;8.486;2022-07-29T00:52:37;3.05;;;2.70;;
10403;SDS011;5248;47.374;8.486;2022-07-29T00:55:05;3.00;;;2.80;;
10403;SDS011;5248;47.374;8.486;2022-07-29T00:57:33;3.20;;;2.88;;
10403;SDS011;5248;47.374;8.486;2022-07-29T01:00:00;3.00;;;2.80;;
10403;SDS011;5248;47.374;8.486;2022-07-29T01:02:27;3.83;;;3.10;;
10403;SDS011;5248;47.374;8.486;2022-07-29T01:04:54;3.05;;;2.85;;
10403;SDS011;5248;47.374;8.486;2022-07-29T01:07:23;2.78;;;2.67;;
10403;SDS011;5248;47.374;8.486;2022-07-29T01:09:50;3.38;;;3.17;;
10403;SDS011;5248;47.374;8.486;2022-07-29T01:12:18;3.55;;;2.75;;
10403;SDS011;5248;47.374;8.486;2022-07-29T01:14:48;2.83;;;2.63;;
10403;SDS011;5248;47.374;8.486;2022-07-29T01:17:18;2.88;;;2.63;;
10403;SDS011;5248;47.374;8.486;2022-07-29T01:19:49;3.13;;;2.60;;
10403;SDS011;5248;47.374;8.486;2022-07-29T01:22:24;3.17;;;2.88;;
10403;SDS011;5248;47.374;8.486;2022-07-29T01:27:44;2.70;;;2.50;;
10403;SDS011;5248;47.374;8.486;2022-07-29T01:30:22;2.85;;;2.70;;
10403;SDS011;5248;47.374;8.486;2022-07-29T01:32:52;4.07;;;3.17;;
10403;SDS011;5248;47.374;8.486;2022-07-29T01:35:22;3.45;;;3.22;;
10403;SDS011;5248;47.374;8.486;2022-07-29T01:37:51;3.13;;;2.92;;
10403;SDS011;5248;47.374;8.486;2022-07-29T01:40:22;2.95;;;2.72;;
10403;SDS011;5248;47.374;8.486;2022-07-29T01:42:51;2.67;;;2.47;;
10403;SDS011;5248;47.374;8.486;2022-07-29T01:45:19;2.83;;;2.63;;
10403;SDS011;5248;47.374;8.486;2022-07-29T01:47:51;2.70;;;2.50;;
10403;SDS011;5248;47.374;8.486;2022-07-29T01:50:20;2.92;;;2.72;;
10403;SDS011;5248;47.374;8.486;2022-07-29T01:52:52;2.85;;;2.65;;
10403;SDS011;5248;47.374;8.486;2022-07-29T01:55:21;2.70;;;2.50;;
10403;SDS011;5248;47.374;8.486;2022-07-29T01:57:49;2.97;;;2.78;;
10403;SDS011;5248;47.374;8.486;2022-07-29T02:00:17;2.85;;;2.65;;
10403;SDS011;5248;47.374;8.486;2022-07-29T02:02:45;2.70;;;2.50;;
10403;SDS011;5248;47.374;8.486;2022-07-29T02:05:14;2.50;;;2.40;;
10403;SDS011;5248;47.374;8.486;2022-07-29T02:07:41;2.88;;;2.67;;
10403;SDS011;5248;47.374;8.486;2022-07-29T02:10:09;3.08;;;2.40;;
10403;SDS011;5248;47.374;8.486;2022-07-29T02:12:37;3.15;;;2.60;;
10403;SDS011;5248;47.374;8.486;2022-07-29T02:15:06;3.03;;;2.42;;
10403;SDS011;5248;47.374;8.486;2022-07-29T02:17:35;2.92;;;2.63;;
10403;SDS011;5248;47.374;8.486;2022-07-29T02:20:07;3.22;;;2.50;;
10403;SDS011;5248;47.374;8.486;2022-07-29T02:22:37;4.18;;;2.45;;
10403;SDS011;5248;47.374;8.486;2022-07-29T02:25:05;2.75;;;2.65;;
10403;SDS011;5248;47.374;8.486;2022-07-29T02:27:32;5.38;;;2.55;;
10403;SDS011;5248;47.374;8.486;2022-07-29T02:30:00;2.63;;;2.47;;
10403;SDS011;5248;47.374;8.486;2022-07-29T02:32:28;2.90;;;2.70;;
10403;SDS011;5248;47.374;8.486;2022-07-29T02:34:55;3.22;;;2.90;;
10403;SDS011;5248;47.374;8.486;2022-07-29T02:37:24;3.05;;;2.80;;
10403;SDS011;5248;47.374;8.486;2022-07-29T02:39:51;2.72;;;2.63;;
10403;SDS011;5248;47.374;8.486;2022-07-29T02:42:18;2.80;;;2.60;;
10403;SDS011;5248;47.374;8.486;2022-07-29T02:44:47;2.83;;;2.63;;
10403;SDS011;5248;47.374;8.486;2022-07-29T02:47:16;3.40;;;2.70;;
10403;SDS011;5248;47.374;8.486;2022-07-29T02:49:47;2.60;;;2.40;;
10403;SDS011;5248;47.374;8.486;2022-07-29T02:52:18;2.80;;;2.70;;
10403;SDS011;5248;47.374;8.486;2022-07-29T02:54:49;2.72;;;2.63;;
10403;SDS011;5248;47.374;8.486;2022-07-29T02:57:19;4.93;;;2.97;;
10403;SDS011;5248;47.374;8.486;2022-07-29T02:59:49;3.00;;;2.80;;
10403;SDS011;5248;47.374;8.486;2022-07-29T03:02:16;2.60;;;2.40;;
10403;SDS011;5248;47.374;8.486;2022-07-29T03:04:43;2.95;;;2.75;;
10403;SDS011;5248;47.374;8.486;2022-07-29T03:07:11;2.72;;;2.53;;
10403;SDS011;5248;47.374;8.486;2022-07-29T03:09:40;3.13;;;2.80;;
10403;SDS011;5248;47.374;8.486;2022-07-29T03:12:09;2.30;;;2.20;;
10403;SDS011;5248;47.374;8.486;2022-07-29T03:14:36;2.45;;;2.35;;
10403;SDS011;5248;47.374;8.486;2022-07-29T03:17:04;2.95;;;2.42;;
10403;SDS011;5248;47.374;8.486;2022-07-29T03:19:31;3.38;;;2.67;;
10403;SDS011;5248;47.374;8.486;2022-07-29T03:21:59;2.60;;;2.40;;
10403;SDS011;5248;47.374;8.486;2022-07-29T03:24:26;4.93;;;2.88;;
10403;SDS011;5248;47.374;8.486;2022-07-29T03:26:54;2.85;;;2.47;;
10403;SDS011;5248;47.374;8.486;2022-07-29T03:29:23;2.60;;;2.50;;
10403;SDS011;5248;47.374;8.486;2022-07-29T03:31:51;2.55;;;2.35;;
10403;SDS011;5248;47.374;8.486;2022-07-29T03:34:17;3.08;;;2.22;;
10403;SDS011;5248;47.374;8.486;2022-07-29T03:36:44;2.78;;;2.42;;
10403;SDS011;5248;47.374;8.486;2022-07-29T03:39:13;3.03;;;2.65;;
10403;SDS011;5248;47.374;8.486;2022-07-29T03:41:42;2.85;;;2.60;;
10403;SDS011;5248;47.374;8.486;2022-07-29T03:44:10;3.20;;;2.80;;
10403;SDS011;5248;47.374;8.486;2022-07-29T03:46:38;3.00;;;2.80;;
10403;SDS011;5248;47.374;8.486;2022-07-29T03:49:05;2.97;;;2.80;;
10403;SDS011;5248;47.374;8.486;2022-07-29T03:51:33;3.08;;;2.80;;
10403;SDS011;5248;47.374;8.486;2022-07-29T03:54:01;2.83;;;2.63;;
10403;SDS011;5248;47.374;8.486;2022-07-29T03:56:28;2.75;;;2.65;;
10403;SDS011;5248;47.374;8.486;2022-07-29T03:58:55;3.03;;;2.85;;
10403;SDS011;5248;47.374;8.486;2022-07-29T04:01:22;3.17;;;2.95;;
10403;SDS011;5248;47.374;8.486;2022-07-29T04:03:51;2.97;;;2.70;;
10403;SDS011;5248;47.374;8.486;2022-07-29T04:06:18;3.13;;;2.88;;
10403;SDS011;5248;47.374;8.486;2022-07-29T04:08:46;2.97;;;2.78;;
10403;SDS011;5248;47.374;8.486;2022-07-29T04:11:12;2.95;;;2.75;;
10403;SDS011;5248;47.374;8.486;2022-07-29T04:13:39;3.05;;;2.85;;
10403;SDS011;5248;47.374;8.486;2022-07-29T04:16:06;2.45;;;2.30;;
10403;SDS011;5248;47.374;8.486;2022-07-29T04:18:32;3.35;;;3.05;;
10403;SDS011;5248;47.374;8.486;2022-07-29T04:21:00;3.03;;;2.72;;
10403;SDS011;5248;47.374;8.486;2022-07-29T04:23:29;3.08;;;2.83;;
10403;SDS011;5248;47.374;8.486;2022-07-29T04:25:57;2.20;;;2.10;;
10403;SDS011;5248;47.374;8.486;2022-07-29T04:28:25;3.65;;;2.75;;
10403;SDS011;5248;47.374;8.486;2022-07-29T04:30:52;2.60;;;2.40;;
10403;SDS011;5248;47.374;8.486;2022-07-29T04:33:18;2.50;;;2.40;;
10403;SDS011;5248;47.374;8.486;2022-07-29T04:35:45;2.92;;;2.72;;
10403;SDS011;5248;47.374;8.486;2022-07-29T04:38:13;2.42;;;2.30;;
10403;SDS011;5248;47.374;8.486;2022-07-29T04:40:39;2.47;;;2.35;;
10403;SDS011;5248;47.374;8.486;2022-07-29T04:43:06;2.88;;;2.67;;
10403;SDS011;5248;47.374;8.486;2022-07-29T04:45:32;2.70;;;2.55;;
10403;SDS011;5248;47.374;8.486;2022-07-29T04:47:59;2.55;;;2.40;;
10403;SDS011;5248;47.374;8.486;2022-07-29T04:50:26;2.95;;;2.55;;
10403;SDS011;5248;47.374;8.486;2022-07-29T04:52:53;2.28;;;2.17;;
10403;SDS011;5248;47.374;8.486;2022-07-29T04:55:21;2.55;;;2.42;;
10403;SDS011;5248;47.374;8.486;2022-07-29T04:57:47;2.65;;;2.55;;
10403;SDS011;5248;47.374;8.486;2022-07-29T05:00:15;2.33;;;2.22;;
10403;SDS011;5248;47.374;8.486;2022-07-29T05:02:42;2.58;;;2.38;;
10403;SDS011;5248;47.374;8.486;2022-07-29T05:05:09;2.38;;;2.22;;
10403;SDS011;5248;47.374;8.486;2022-07-29T05:07:36;2.67;;;2.58;;
10403;SDS011;5248;47.374;8.486;2022-07-29T05:10:03;2.63;;;2.42;;
10403;SDS011;5248;47.374;8.486;2022-07-29T05:12:33;3.75;;;2.80;;
10403;SDS011;5248;47.374;8.486;2022-07-29T05:14:59;2.80;;;2.70;;
10403;SDS011;5248;47.374;8.486;2022-07-29T05:17:26;2.90;;;2.70;;
10403;SDS011;5248;47.374;8.486;2022-07-29T05:19:52;4.00;;;2.75;;
10403;SDS011;5248;47.374;8.486;2022-07-29T05:22:19;2.70;;;2.50;;
10403;SDS011;5248;47.374;8.486;2022-07-29T05:24:46;2.80;;;2.60;;
10403;SDS011;5248;47.374;8.486;2022-07-29T05:27:13;3.00;;;2.80;;
10403;SDS011;5248;47.374;8.486;2022-07-29T05:29:41;3.15;;;2.67;;
10403;SDS011;5248;47.374;8.486;2022-07-29T05:32:08;5.40;;;2.90;;
10403;SDS011;5248;47.374;8.486;2022-07-29T05:34:34;2.85;;;2.65;;
10403;SDS011;5248;47.374;8.486;2022-07-29T05:37:01;3.25;;;2.88;;
10403;SDS011;5248;47.374;8.486;2022-07-29T05:39:27;3.10;;;2.80;;
10403;SDS011;5248;47.374;8.486;2022-07-29T05:41:55;3.13;;;2.70;;
10403;SDS011;5248;47.374;8.486;2022-07-29T05:44:21;2.78;;;2.58;;
10403;SDS011;5248;47.374;8.486;2022-07-29T05:46:49;3.00;;;2.80;;
10403;SDS011;5248;47.374;8.486;2022-07-29T05:49:16;2.67;;;2.58;;
10403;SDS011;5248;47.374;8.486;2022-07-29T05:51:43;3.90;;;2.28;;
10403;SDS011;5248;47.374;8.486;2022-07-29T05:54:09;2.80;;;2.58;;
10403;SDS011;5248;47.374;8.486;2022-07-29T05:56:37;2.47;;;2.30;;
10403;SDS011;5248;47.374;8.486;2022-07-29T05:59:04;2.40;;;2.20;;
10403;SDS011;5248;47.374;8.486;2022-07-29T06:01:31;2.53;;;2.33;;
10403;SDS011;5248;47.374;8.486;2022-07-29T06:03:59;5.38;;;3.00;;
10403;SDS011;5248;47.374;8.486;2022-07-29T06:06:26;3.30;;;3.00;;
10403;SDS011;5248;47.374;8.486;2022-07-29T06:08:53;3.90;;;2.67;;
10403;SDS011;5248;47.374;8.486;2022-07-29T06:11:20;4.93;;;3.15;;
10403;SDS011;5248;47.374;8.486;2022-07-29T06:13:46;23.20;;;5.43;;
10403;SDS011;5248;47.374;8.486;2022-07-29T06:16:13;14.13;;;3.80;;
10403;SDS011;5248;47.374;8.486;2022-07-29T06:18:40;4.45;;;3.25;;
10403;SDS011;5248;47.374;8.486;2022-07-29T06:21:08;2.70;;;2.50;;
10403;SDS011;5248;47.374;8.486;2022-07-29T06:23:36;2.80;;;2.60;;
10403;SDS011;5248;47.374;8.486;2022-07-29T06:26:03;5.05;;;2.95;;
10403;SDS011;5248;47.374;8.486;2022-07-29T06:28:31;2.80;;;2.60;;
10403;SDS011;5248;47.374;8.486;2022-07-29T06:30:58;2.88;;;2.53;;
10403;SDS011;5248;47.374;8.486;2022-07-29T06:33:24;5.82;;;2.75;;
10403;SDS011;5248;47.374;8.486;2022-07-29T06:35:51;2.80;;;2.60;;
10403;SDS011;5248;47.374;8.486;2022-07-29T06:38:19;3.45;;;3.25;;
10403;SDS011;5248;47.374;8.486;2022-07-29T06:40:46;3.50;;;3.30;;
10403;SDS011;5248;47.374;8.486;2022-07-29T06:43:30;2.83;;;2.63;;
10403;SDS011;5248;47.374;8.486;2022-07-29T06:46:02;3.78;;;3.47;;
10403;SDS011;5248;47.374;8.486;2022-07-29T06:48:31;7.03;;;6.32;;
10403;SDS011;5248;47.374;8.486;2022-07-29T06:50:59;15.48;;;14.07;;
10403;SDS011;5248;47.374;8.486;2022-07-29T06:53:28;8.60;;;7.80;;
10403;SDS011;5248;47.374;8.486;2022-07-29T06:55:55;5.70;;;5.07;;
10403;SDS011;5248;47.374;8.486;2022-07-29T06:58:23;4.97;;;3.20;;
10403;SDS011;5248;47.374;8.486;2022-07-29T07:00:50;3.28;;;3.00;;
10403;SDS011;5248;47.374;8.486;2022-07-29T07:03:17;3.38;;;3.05;;
10403;SDS011;5248;47.374;8.486;2022-07-29T07:05:44;3.50;;;3.30;;
10403;SDS011;5248;47.374;8.486;2022-07-29T07:08:12;4.40;;;4.10;;
10403;SDS011;5248;47.374;8.486;2022-07-29T07:10:42;6.95;;;3.30;;
10403;SDS011;5248;47.374;8.486;2022-07-29T07:13:09;3.35;;;3.05;;
10403;SDS011;5248;47.374;8.486;2022-07-29T07:15:36;3.40;;;3.20;;
10403;SDS011;5248;47.374;8.486;2022-07-29T07:18:03;3.97;;;3.78;;
10403;SDS011;5248;47.374;8.486;2022-07-29T07:20:30;3.70;;;3.40;;
10403;SDS011;5248;47.374;8.486;2022-07-29T07:22:57;3.58;;;3.28;;
10403;SDS011;5248;47.374;8.486;2022-07-29T07:25:24;3.08;;;2.88;;
10403;SDS011;5248;47.374;8.486;2022-07-29T07:27:52;3.58;;;3.25;;
10403;SDS011;5248;47.374;8.486;2022-07-29T07:30:19;4.18;;;3.30;;
10403;SDS011;5248;47.374;8.486;2022-07-29T07:32:46;3.50;;;3.30;;
10403;SDS011;5248;47.374;8.486;2022-07-29T07:35:12;3.35;;;3.10;;
10403;SDS011;5248;47.374;8.486;2022-07-29T07:37:39;4.20;;;3.47;;
10403;SDS011;5248;47.374;8.486;2022-07-29T07:40:07;3.42;;;3.22;;
10403;SDS011;5248;47.374;8.486;2022-07-29T07:42:34;5.80;;;4.32;;
10403;SDS011;5248;47.374;8.486;2022-07-29T07:45:03;4.32;;;3.88;;
10403;SDS011;5248;47.374;8.486;2022-07-29T07:47:31;3.92;;;3.63;;
10403;SDS011;5248;47.374;8.486;2022-07-29T07:49:58;5.63;;;3.50;;
10403;SDS011;5248;47.374;8.486;2022-07-29T07:52:25;4.88;;;3.90;;
10403;SDS011;5248;47.374;8.486;2022-07-29T07:54:52;4.95;;;3.42;;
10403;SDS011;5248;47.374;8.486;2022-07-29T07:57:18;3.85;;;3.10;;
10403;SDS011;5248;47.374;8.486;2022-07-29T07:59:46;4.22;;;3.50;;
10403;SDS011;5248;47.374;8.486;2022-07-29T08:02:14;7.15;;;6.53;;
10403;SDS011;5248;47.374;8.486;2022-07-29T08:04:41;3.92;;;3.53;;
10403;SDS011;5248;47.374;8.486;2022-07-29T08:07:07;3.20;;;3.00;;
10403;SDS011;5248;47.374;8.486;2022-07-29T08:09:34;3.47;;;3.00;;
10403;SDS011;5248;47.374;8.486;2022-07-29T08:12:02;3.70;;;3.40;;
10403;SDS011;5248;47.374;8.486;2022-07-29T08:14:31;5.32;;;3.15;;
10403;SDS011;5248;47.374;8.486;2022-07-29T08:16:58;5.45;;;3.25;;
10403;SDS011;5248;47.374;8.486;2022-07-29T08:19:26;5.68;;;3.83;;
10403;SDS011;5248;47.374;8.486;2022-07-29T08:21:52;4.72;;;3.95;;
10403;SDS011;5248;47.374;8.486;2022-07-29T08:24:19;3.72;;;3.50;;
10403;SDS011;5248;47.374;8.486;2022-07-29T08:27:03;3.72;;;3.42;;
10403;SDS011;5248;47.374;8.486;2022-07-29T08:29:30;3.90;;;3.60;;
10403;SDS011;5248;47.374;8.486;2022-07-29T08:31:56;4.00;;;3.70;;
10403;SDS011;5248;47.374;8.486;2022-07-29T08:34:23;4.25;;;3.95;;
10403;SDS011;5248;47.374;8.486;2022-07-29T08:36:51;5.05;;;4.45;;
10403;SDS011;5248;47.374;8.486;2022-07-29T08:39:18;3.80;;;3.50;;
10403;SDS011;5248;47.374;8.486;2022-07-29T08:41:44;3.78;;;3.47;;
10403;SDS011;5248;47.374;8.486;2022-07-29T08:44:11;3.70;;;3.40;;
10403;SDS011;5248;47.374;8.486;2022-07-29T08:46:38;3.50;;;3.20;;
10403;SDS011;5248;47.374;8.486;2022-07-29T08:49:05;4.43;;;3.42;;
10403;SDS011;5248;47.374;8.486;2022-07-29T08:51:32;4.13;;;3.47;;
10403;SDS011;5248;47.374;8.486;2022-07-29T08:54:01;4.45;;;3.53;;
10403;SDS011;5248;47.374;8.486;2022-07-29T08:56:28;3.95;;;3.60;;
10403;SDS011;5248;47.374;8.486;2022-07-29T08:58:55;3.85;;;3.50;;
10403;SDS011;5248;47.374;8.486;2022-07-29T09:01:23;3.85;;;3.60;;
10403;SDS011;5248;47.374;8.486;2022-07-29T09:03:51;3.70;;;3.40;;
10403;SDS011;5248;47.374;8.486;2022-07-29T09:06:21;4.22;;;3.00;;
10403;SDS011;5248;47.374;8.486;2022-07-29T09:08:48;4.20;;;2.78;;
10403;SDS011;5248;47.374;8.486;2022-07-29T09:11:16;3.05;;;2.85;;
10403;SDS011;5248;47.374;8.486;2022-07-29T09:13:43;3.63;;;3.33;;
10403;SDS011;5248;47.374;8.486;2022-07-29T09:16:10;4.10;;;3.00;;
10403;SDS011;5248;47.374;8.486;2022-07-29T09:18:38;3.67;;;3.33;;
10403;SDS011;5248;47.374;8.486;2022-07-29T09:21:05;3.05;;;2.55;;
10403;SDS011;5248;47.374;8.486;2022-07-29T09:24:00;2.55;;;2.35;;
10403;SDS011;5248;47.374;8.486;2022-07-29T09:26:30;3.17;;;2.90;;
10403;SDS011;5248;47.374;8.486;2022-07-29T09:28:58;3.05;;;2.75;;
10403;SDS011;5248;47.374;8.486;2022-07-29T09:31:32;3.03;;;2.83;;
10403;SDS011;5248;47.374;8.486;2022-07-29T09:34:00;3.17;;;2.78;;
10403;SDS011;5248;47.374;8.486;2022-07-29T09:36:27;2.80;;;2.60;;
10403;SDS011;5248;47.374;8.486;2022-07-29T09:38:57;4.43;;;2.70;;
10403;SDS011;5248;47.374;8.486;2022-07-29T09:41:25;3.15;;;2.80;;
10403;SDS011;5248;47.374;8.486;2022-07-29T09:43:56;2.40;;;2.30;;
10403;SDS011;5248;47.374;8.486;2022-07-29T09:46:24;4.95;;;2.95;;
10403;SDS011;5248;47.374;8.486;2022-07-29T09:51:36;2.85;;;2.70;;
10403;SDS011;5248;47.374;8.486;2022-07-29T09:54:03;2.80;;;2.60;;
10403;SDS011;5248;47.374;8.486;2022-07-29T09:56:48;3.03;;;2.47;;
10403;SDS011;5248;47.374;8.486;2022-07-29T09:59:16;2.92;;;2.70;;
10403;SDS011;5248;47.374;8.486;2022-07-29T10:01:43;3.35;;;2.75;;
10403;SDS011;5248;47.374;8.486;2022-07-29T10:04:09;2.92;;;2.72;;
10403;SDS011;5248;47.374;8.486;2022-07-29T10:06:40;3.13;;;2.83;;
10403;SDS011;5248;47.374;8.486;2022-07-29T10:09:21;2.95;;;2.78;;
10403;SDS011;5248;47.374;8.486;2022-07-29T10:12:04;2.92;;;2.72;;
10403;SDS011;5248;47.374;8.486;2022-07-29T10:14:33;2.65;;;2.45;;
10403;SDS011;5248;47.374;8.486;2022-07-29T10:17:01;3.35;;;3.15;;
10403;SDS011;5248;47.374;8.486;2022-07-29T10:19:29;3.58;;;3.08;;
10403;SDS011;5248;47.374;8.486;2022-07-29T10:21:57;3.60;;;3.15;;
10403;SDS011;5248;47.374;8.486;2022-07-29T10:24:24;3.17;;;2.80;;
10403;SDS011;5248;47.374;8.486;2022-07-29T10:26:52;2.97;;;2.80;;
10403;SDS011;5248;47.374;8.486;2022-07-29T10:29:20;4.03;;;3.03;;
10403;SDS011;5248;47.374;8.486;2022-07-29T10:31:50;3.67;;;2.80;;
10403;SDS011;5248;47.374;8.486;2022-07-29T10:34:23;2.85;;;2.65;;
10403;SDS011;5248;47.374;8.486;2022-07-29T10:36:57;3.03;;;2.65;;
10403;SDS011;5248;47.374;8.486;2022-07-29T10:39:38;3.22;;;2.92;;
10403;SDS011;5248;47.374;8.486;2022-07-29T10:42:11;2.83;;;2.63;;
10403;SDS011;5248;47.374;8.486;2022-07-29T10:44:43;2.60;;;2.40;;
10403;SDS011;5248;47.374;8.486;2022-07-29T10:47:20;4.63;;;2.90;;
10403;SDS011;5248;47.374;8.486;2022-07-29T10:49:55;8.82;;;3.05;;
10403;SDS011;5248;47.374;8.486;2022-07-29T10:52:23;3.08;;;2.30;;
10403;SDS011;5248;47.374;8.486;2022-07-29T10:54:52;3.00;;;2.80;;
10403;SDS011;5248;47.374;8.486;2022-07-29T10:57:20;3.03;;;2.83;;
10403;SDS011;5248;47.374;8.486;2022-07-29T10:59:50;3.22;;;3.00;;
10403;SDS011;5248;47.374;8.486;2022-07-29T11:05:10;3.33;;;2.65;;
10403;SDS011;5248;47.374;8.486;2022-07-29T11:07:38;3.05;;;2.85;;
10403;SDS011;5248;47.374;8.486;2022-07-29T11:10:22;3.03;;;2.83;;
10403;SDS011;5248;47.374;8.486;2022-07-29T11:12:49;2.97;;;2.78;;
10403;SDS011;5248;47.374;8.486;2022-07-29T11:15:17;3.20;;;2.88;;
10403;SDS011;5248;47.374;8.486;2022-07-29T11:20:38;2.67;;;2.53;;
10403;SDS011;5248;47.374;8.486;2022-07-29T11:23:19;2.70;;;2.42;;
10403;SDS011;5248;47.374;8.486;2022-07-29T11:28:42;2.30;;;2.20;;
10403;SDS011;5248;47.374;8.486;2022-07-29T11:31:35;4.75;;;3.30;;
10403;SDS011;5248;47.374;8.486;2022-07-29T11:34:17;3.13;;;2.90;;
10403;SDS011;5248;47.374;8.486;2022-07-29T11:39:42;3.50;;;2.50;;
10403;SDS011;5248;47.374;8.486;2022-07-29T11:45:07;5.50;;;2.80;;
10403;SDS011;5248;47.374;8.486;2022-07-29T11:47:35;2.53;;;2.33;;
10403;SDS011;5248;47.374;8.486;2022-07-29T11:50:05;2.50;;;2.40;;
10403;SDS011;5248;47.374;8.486;2022-07-29T11:52:33;2.40;;;2.30;;
10403;SDS011;5248;47.374;8.486;2022-07-29T11:55:03;2.10;;;2.00;;
10403;SDS011;5248;47.374;8.486;2022-07-29T11:57:31;2.50;;;2.30;;
10403;SDS011;5248;47.374;8.486;2022-07-29T12:00:00;2.25;;;2.10;;
10403;SDS011;5248;47.374;8.486;2022-07-29T12:02:37;3.22;;;2.85;;
10403;SDS011;5248;47.374;8.486;2022-07-29T12:05:09;2.88;;;2.42;;
10403;SDS011;5248;47.374;8.486;2022-07-29T12:07:36;2.80;;;2.60;;
10403;SDS011;5248;47.374;8.486;2022-07-29T12:10:04;3.78;;;2.50;;
10403;SDS011;5248;47.374;8.486;2022-07-29T12:12:32;3.60;;;2.60;;
10403;SDS011;5248;47.374;8.486;2022-07-29T12:15:10;2.63;;;2.28;;
10403;SDS011;5248;47.374;8.486;2022-07-29T12:17:37;2.88;;;2.63;;
10403;SDS011;5248;47.374;8.486;2022-07-29T12:20:06;2.85;;;2.65;;
10403;SDS011;5248;47.374;8.486;2022-07-29T12:22:35;4.00;;;3.00;;
10403;SDS011;5248;47.374;8.486;2022-07-29T12:25:05;3.13;;;2.83;;
10403;SDS011;5248;47.374;8.486;2022-07-29T12:27:34;3.20;;;3.00;;
10403;SDS011;5248;47.374;8.486;2022-07-29T12:30:03;3.50;;;3.20;;
10403;SDS011;5248;47.374;8.486;2022-07-29T12:32:31;3.47;;;3.28;;
10403;SDS011;5248;47.374;8.486;2022-07-29T12:34:59;3.40;;;3.20;;
10403;SDS011;5248;47.374;8.486;2022-07-29T12:37:27;3.15;;;2.97;;
10403;SDS011;5248;47.374;8.486;2022-07-29T12:39:54;3.55;;;3.25;;
10403;SDS011;5248;47.374;8.486;2022-07-29T12:42:20;3.40;;;3.20;;
10403;SDS011;5248;47.374;8.486;2022-07-29T12:44:48;3.30;;;3.10;;
10403;SDS011;5248;47.374;8.486;2022-07-29T12:47:16;4.63;;;3.58;;
10403;SDS011;5248;47.374;8.486;2022-07-29T12:49:44;3.63;;;3.38;;
10403;SDS011;5248;47.374;8.486;2022-07-29T12:52:24;3.40;;;3.20;;
10403;SDS011;5248;47.374;8.486;2022-07-29T12:54:55;3.30;;;3.10;;
10403;SDS011;5248;47.374;8.486;2022-07-29T12:57:22;3.10;;;2.90;;
10403;SDS011;5248;47.374;8.486;2022-07-29T13:00:04;4.30;;;3.40;;
10403;SDS011;5248;47.374;8.486;2022-07-29T13:02:35;4.05;;;3.75;;
10403;SDS011;5248;47.374;8.486;2022-07-29T13:05:01;3.50;;;3.22;;
10403;SDS011;5248;47.374;8.486;2022-07-29T13:07:31;3.33;;;3.05;;
10403;SDS011;5248;47.374;8.486;2022-07-29T13:10:10;3.55;;;3.22;;
10403;SDS011;5248;47.374;8.486;2022-07-29T13:12:38;3.97;;;3.58;;
10403;SDS011;5248;47.374;8.486;2022-07-29T13:15:13;3.28;;;3.08;;
10403;SDS011;5248;47.374;8.486;2022-07-29T13:17:41;3.35;;;3.15;;
10403;SDS011;5248;47.374;8.486;2022-07-29T13:20:09;3.58;;;3.13;;
10403;SDS011;5248;47.374;8.486;2022-07-29T13:22:40;3.60;;;3.30;;
10403;SDS011;5248;47.374;8.486;2022-07-29T13:25:07;3.60;;;3.30;;
10403;SDS011;5248;47.374;8.486;2022-07-29T13:27:36;5.15;;;4.30;;
10403;SDS011;5248;47.374;8.486;2022-07-29T13:30:04;5.65;;;4.60;;
10403;SDS011;5248;47.374;8.486;2022-07-29T13:32:33;5.40;;;4.15;;
10403;SDS011;5248;47.374;8.486;2022-07-29T13:35:02;4.38;;;3.58;;
10403;SDS011;5248;47.374;8.486;2022-07-29T13:37:29;4.15;;;3.50;;
10403;SDS011;5248;47.374;8.486;2022-07-29T13:39:59;3.60;;;3.40;;
10403;SDS011;5248;47.374;8.486;2022-07-29T13:42:27;3.72;;;3.42;;
10403;SDS011;5248;47.374;8.486;2022-07-29T13:44:54;3.63;;;3.42;;
10403;SDS011;5248;47.374;8.486;2022-07-29T13:47:21;4.60;;;3.38;;
10403;SDS011;5248;47.374;8.486;2022-07-29T13:49:48;3.78;;;3.45;;
10403;SDS011;5248;47.374;8.486;2022-07-29T13:52:15;3.90;;;3.60;;
10403;SDS011;5248;47.374;8.486;2022-07-29T13:54:41;4.07;;;3.72;;
10403;SDS011;5248;47.374;8.486;2022-07-29T13:57:10;4.50;;;4.10;;
10403;SDS011;5248;47.374;8.486;2022-07-29T13:59:37;4.32;;;3.92;;
10403;SDS011;5248;47.374;8.486;2022-07-29T14:02:04;4.30;;;4.00;;
10403;SDS011;5248;47.374;8.486;2022-07-29T14:04:31;5.60;;;5.25;;
10403;SDS011;5248;47.374;8.486;2022-07-29T14:06:57;5.45;;;4.95;;
10403;SDS011;5248;47.374;8.486;2022-07-29T14:09:24;6.95;;;6.30;;
10403;SDS011;5248;47.374;8.486;2022-07-29T14:11:51;5.38;;;4.88;;
10403;SDS011;5248;47.374;8.486;2022-07-29T14:14:20;5.30;;;4.80;;
10403;SDS011;5248;47.374;8.486;2022-07-29T14:16:47;5.57;;;5.18;;
10403;SDS011;5248;47.374;8.486;2022-07-29T14:19:13;5.78;;;5.30;;
10403;SDS011;5248;47.374;8.486;2022-07-29T14:21:40;5.78;;;5.28;;
10403;SDS011;5248;47.374;8.486;2022-07-29T14:24:07;5.68;;;5.18;;
10403;SDS011;5248;47.374;8.486;2022-07-29T14:26:33;6.05;;;5.47;;
10403;SDS011;5248;47.374;8.486;2022-07-29T14:29:00;5.45;;;4.95;;
10403;SDS011;5248;47.374;8.486;2022-07-29T14:31:28;5.50;;;5.10;;
10403;SDS011;5248;47.374;8.486;2022-07-29T14:33:55;4.72;;;4.28;;
10403;SDS011;5248;47.374;8.486;2022-07-29T14:36:22;4.63;;;4.22;;
10403;SDS011;5248;47.374;8.486;2022-07-29T14:38:48;7.00;;;4.13;;
10403;SDS011;5248;47.374;8.486;2022-07-29T14:41:15;4.65;;;4.28;;
10403;SDS011;5248;47.374;8.486;2022-07-29T14:43:42;4.68;;;4.20;;
10403;SDS011;5248;47.374;8.486;2022-07-29T14:46:09;4.13;;;3.83;;
10403;SDS011;5248;47.374;8.486;2022-07-29T14:48:37;4.82;;;4.40;;
10403;SDS011;5248;47.374;8.486;2022-07-29T14:51:04;4.70;;;4.05;;
10403;SDS011;5248;47.374;8.486;2022-07-29T14:53:31;4.70;;;4.40;;
10403;SDS011;5248;47.374;8.486;2022-07-29T14:55:58;4.95;;;4.55;;
10403;SDS011;5248;47.374;8.486;2022-07-29T14:58:24;5.20;;;4.78;;
10403;SDS011;5248;47.374;8.486;2022-07-29T15:00:51;5.45;;;4.95;;
10403;SDS011;5248;47.374;8.486;2022-07-29T15:03:19;4.90;;;4.57;;
10403;SDS011;5248;47.374;8.486;2022-07-29T15:05:48;5.07;;;4.60;;
10403;SDS011;5248;47.374;8.486;2022-07-29T15:08:14;4.72;;;4.40;;
10403;SDS011;5248;47.374;8.486;2022-07-29T15:10:41;5.32;;;4.82;;
10403;SDS011;5248;47.374;8.486;2022-07-29T15:13:08;5.38;;;4.88;;
10403;SDS011;5248;47.374;8.486;2022-07-29T15:15:34;4.97;;;4.57;;
10403;SDS011;5248;47.374;8.486;2022-07-29T15:18:01;5.10;;;4.65;;
10403;SDS011;5248;47.374;8.486;2022-07-29T15:20:28;4.50;;;4.20;;
10403;SDS011;5248;47.374;8.486;2022-07-29T15:22:56;5.03;;;4.60;;
10403;SDS011;5248;47.374;8.486;2022-07-29T15:25:23;5.68;;;5.20;;
10403;SDS011;5248;47.374;8.486;2022-07-29T15:27:50;5.63;;;5.22;;